createdAt,value
2022-09-28T00:01:25.610Z,97.68
2022-09-28T00:04:27.767Z,97.54
2022-09-28T00:07:30.020Z,97.76
2022-09-28T00:10:32.012Z,97.29
2022-09-28T00:13:35.268Z,96.95
2022-09-28T00:16:42.152Z,95.91
2022-09-28T00:19:45.172Z,96.17
2022-09-28T00:22:47.308Z,96.37
2022-09-28T00:25:49.521Z,99.02
2022-09-28T00:28:52.789Z,100.00
2022-09-28T00:32:02.137Z,100.00
2022-09-28T00:35:04.996Z,100.00
2022-09-28T00:38:09.468Z,100.00
2022-09-28T00:41:12.725Z,100.00
2022-09-28T00:44:27.189Z,100.00
2022-09-28T00:47:41.288Z,100.00
2022-09-28T00:50:43.903Z,100.00
2022-09-28T00:53:46.227Z,100.00
2022-09-28T00:56:48.879Z,100.00
2022-09-28T00:59:52.702Z,100.00
2022-09-28T01:02:55.299Z,100.00
2022-09-28T01:05:59.934Z,100.00
2022-09-28T01:09:05.712Z,100.00
2022-09-28T01:12:08.501Z,100.00
2022-09-28T01:15:11.114Z,100.00
2022-09-28T01:18:39.365Z,100.00
2022-09-28T01:22:00.401Z,100.00
2022-09-28T01:25:25.842Z,100.00
2022-09-28T01:28:29.341Z,100.00
2022-09-28T01:31:34.277Z,100.00
2022-09-28T01:34:45.581Z,100.00
2022-09-28T01:38:21.501Z,100.00
2022-09-28T01:41:25.176Z,100.00
2022-09-28T01:44:30.149Z,100.00
2022-09-28T01:47:37.130Z,100.00
2022-09-28T01:50:42.198Z,100.00
2022-09-28T01:53:52.704Z,100.00
2022-09-28T01:57:13.467Z,100.00
2022-09-28T02:00:18.416Z,100.00
2022-09-28T02:03:55.395Z,100.00
2022-09-28T02:07:18.565Z,100.00
2022-09-28T02:10:24.766Z,100.00
2022-09-28T02:13:40.998Z,99.40
2022-09-28T02:16:48.918Z,98.71
2022-09-28T02:19:51.466Z,98.45
2022-09-28T02:22:57.233Z,98.07
2022-09-28T02:26:08.183Z,97.76
2022-09-28T02:29:12.914Z,98.53
2022-09-28T02:32:17.086Z,100.00
2022-09-28T02:35:20.611Z,100.00
2022-09-28T02:38:23.252Z,99.73
2022-09-28T02:41:26.241Z,99.13
2022-09-28T02:45:01.143Z,98.83
2022-09-28T02:48:27.187Z,98.91
2022-09-28T02:52:04.705Z,98.31
2022-09-28T02:55:19.965Z,99.30
2022-09-28T02:58:52.647Z,99.02
2022-09-28T03:02:19.725Z,99.26
2022-09-28T03:06:03.067Z,99.35
2022-09-28T03:09:34.420Z,99.76
2022-09-28T03:12:37.935Z,99.42
2022-09-28T03:15:46.433Z,98.77
2022-09-28T03:18:50.669Z,98.83
2022-09-28T03:21:53.139Z,98.92
2022-09-28T03:24:55.403Z,99.53
2022-09-28T03:27:57.826Z,99.55
2022-09-28T03:31:01.961Z,100.00
2022-09-28T03:34:04.962Z,100.00
2022-09-28T03:37:07.450Z,100.00
2022-09-28T03:40:09.899Z,100.00
2022-09-28T03:43:12.212Z,100.00
2022-09-28T03:46:14.770Z,100.00
2022-09-28T03:49:22.219Z,100.00
2022-09-28T03:52:24.960Z,100.00
2022-09-28T03:55:27.303Z,100.00
2022-09-28T03:58:29.611Z,100.00
2022-09-28T04:01:32.189Z,100.00
2022-09-28T04:04:34.312Z,100.00
2022-09-28T04:07:36.549Z,100.00
2022-09-28T04:10:38.757Z,100.00
2022-09-28T04:13:42.467Z,100.00
2022-09-28T04:16:49.045Z,100.00
2022-09-28T04:19:51.647Z,100.00
2022-09-28T04:23:25.842Z,100.00
2022-09-28T04:26:28.376Z,100.00
2022-09-28T04:29:31.826Z,100.00
2022-09-28T04:32:35.167Z,100.00
2022-09-28T04:35:37.366Z,100.00
2022-09-28T04:38:52.928Z,100.00
2022-09-28T04:41:57.357Z,100.00
2022-09-28T04:45:00.964Z,100.00
2022-09-28T04:48:07.366Z,100.00
2022-09-28T04:51:33.247Z,100.00
2022-09-28T04:54:35.738Z,100.00
2022-09-28T04:57:38.017Z,100.00
2022-09-28T05:00:40.167Z,100.00
2022-09-28T05:03:57.391Z,100.00
2022-09-28T05:07:14.411Z,100.00
2022-09-28T05:10:17.267Z,100.00
2022-09-28T05:13:21.007Z,100.00
2022-09-28T05:16:25.187Z,100.00
2022-09-28T05:19:50.208Z,100.00
2022-09-28T05:22:52.583Z,100.00
2022-09-28T05:25:54.654Z,100.00
2022-09-28T05:29:01.849Z,100.00
2022-09-28T05:32:22.372Z,100.00
2022-09-28T05:35:43.259Z,100.00
2022-09-28T05:38:45.918Z,100.00
2022-09-28T05:41:49.422Z,100.00
2022-09-28T05:44:51.797Z,100.00
2022-09-28T05:47:55.101Z,100.00
2022-09-28T05:50:58.821Z,100.00
2022-09-28T05:54:05.745Z,100.00
2022-09-28T05:57:11.050Z,100.00
2022-09-28T06:00:13.537Z,100.00
2022-09-28T06:03:20.143Z,100.00
2022-09-28T06:06:22.676Z,100.00
2022-09-28T06:09:26.146Z,100.00
2022-09-28T06:12:52.612Z,100.00
2022-09-28T06:15:55.771Z,100.00
2022-09-28T06:18:58.143Z,100.00
2022-09-28T06:22:35.440Z,100.00
2022-09-28T06:25:43.411Z,100.00
2022-09-28T06:28:45.704Z,100.00
2022-09-28T06:31:49.304Z,100.00
2022-09-28T06:34:56.189Z,100.00
2022-09-28T06:38:00.981Z,100.00
2022-09-28T06:41:02.985Z,100.00
2022-09-28T06:44:05.247Z,100.00
2022-09-28T06:47:26.140Z,100.00
2022-09-28T06:50:51.914Z,100.00
2022-09-28T06:54:02.625Z,100.00
2022-09-28T06:57:23.430Z,99.77
2022-09-28T07:00:31.210Z,99.08
2022-09-28T07:03:33.636Z,97.86
2022-09-28T07:06:54.389Z,97.47
2022-09-28T07:10:16.662Z,97.49
2022-09-28T07:13:49.763Z,99.00
2022-09-28T07:17:12.345Z,100.00
2022-09-28T07:20:19.478Z,98.63
2022-09-28T07:23:26.318Z,97.05
2022-09-28T07:26:47.135Z,97.13
2022-09-28T07:30:10.325Z,97.76
2022-09-28T07:33:30.283Z,97.50
2022-09-28T07:36:45.588Z,98.57
2022-09-28T07:40:06.551Z,98.47
2022-09-28T07:43:13.237Z,95.49
2022-09-28T07:46:16.879Z,95.43
2022-09-28T07:49:30.656Z,95.46
2022-09-28T07:52:49.534Z,96.03
2022-09-28T07:56:09.801Z,95.63
2022-09-28T07:59:25.191Z,94.60
2022-09-28T08:03:00.885Z,94.13
2022-09-28T08:06:11.195Z,95.35
2022-09-28T08:09:13.618Z,95.19
2022-09-28T08:12:34.238Z,93.61
2022-09-28T08:16:00.811Z,94.13
2022-09-28T08:19:21.603Z,93.76
2022-09-28T08:22:32.232Z,90.35
2022-09-28T08:25:38.304Z,91.55
2022-09-28T08:28:43.338Z,91.80
2022-09-28T08:32:08.167Z,91.79
2022-09-28T08:35:10.965Z,89.61
2022-09-28T08:38:20.955Z,88.75
2022-09-28T08:42:03.568Z,88.59
2022-09-28T08:45:23.109Z,84.41
2022-09-28T08:49:25.355Z,82.57
2022-09-28T08:52:57.195Z,81.87
2022-09-28T08:56:39.489Z,81.96
2022-09-28T08:59:51.718Z,81.22
2022-09-28T09:03:05.673Z,77.66
2022-09-28T09:06:44.217Z,77.81
2022-09-28T09:10:24.739Z,76.06
2022-09-28T09:13:43.375Z,75.50
2022-09-28T09:17:10.241Z,74.72
2022-09-28T09:21:06.290Z,74.74
2022-09-28T09:24:38.182Z,74.52
2022-09-28T09:28:11.425Z,69.40
2022-09-28T09:31:32.567Z,69.62
2022-09-28T09:34:58.352Z,66.26
2022-09-28T09:38:32.782Z,66.68
2022-09-28T09:42:29.725Z,67.13
2022-09-28T09:46:02.905Z,62.90
2022-09-28T09:49:35.621Z,63.76
2022-09-28T09:52:47.837Z,57.74
2022-09-28T09:56:01.878Z,61.61
2022-09-28T09:59:35.102Z,61.01
2022-09-28T10:02:48.020Z,58.59
2022-09-28T10:06:28.581Z,61.43
2022-09-28T10:09:35.075Z,62.96
2022-09-28T10:12:54.695Z,59.27
2022-09-28T10:15:57.124Z,60.21
2022-09-28T10:19:13.062Z,60.75
2022-09-28T10:22:34.893Z,59.43
2022-09-28T10:25:46.554Z,60.66
2022-09-28T10:28:55.905Z,55.12
2022-09-28T10:31:59.990Z,56.55
2022-09-28T10:35:18.749Z,56.69
2022-09-28T10:38:24.798Z,57.86
2022-09-28T10:41:32.011Z,57.37
2022-09-28T10:44:51.772Z,57.89
2022-09-28T10:48:19.469Z,56.20
2022-09-28T10:51:53.633Z,54.35
2022-09-28T10:55:32.725Z,52.92
2022-09-28T10:58:42.046Z,54.65
2022-09-28T11:01:56.322Z,51.93
2022-09-28T11:05:00.991Z,55.00
2022-09-28T11:08:08.102Z,56.26
2022-09-28T11:11:20.133Z,56.94
2022-09-28T11:14:41.880Z,54.99
2022-09-28T11:17:51.310Z,54.21
2022-09-28T11:21:11.482Z,56.31
2022-09-28T11:24:19.137Z,57.89
2022-09-28T11:27:27.314Z,58.71
2022-09-28T11:30:34.389Z,59.11
2022-09-28T11:34:07.195Z,57.39
2022-09-28T11:37:33.604Z,56.07
2022-09-28T11:41:04.985Z,58.65
2022-09-28T11:44:20.889Z,60.33
2022-09-28T11:47:30.356Z,58.85
2022-09-28T11:51:10.669Z,60.76
2022-09-28T11:54:19.826Z,57.72
2022-09-28T11:57:27.241Z,58.05
2022-09-28T12:00:31.790Z,58.03
2022-09-28T12:03:43.320Z,56.85
2022-09-28T12:06:52.628Z,57.46
2022-09-28T12:10:11.672Z,55.53
2022-09-28T12:13:22.692Z,55.50
2022-09-28T12:20:02.501Z,57.77
2022-09-28T12:23:19.228Z,55.01
2022-09-28T12:26:48.296Z,58.37
2022-09-28T12:29:53.541Z,57.99
2022-09-28T12:33:05.962Z,58.05
2022-09-28T12:36:33.106Z,59.76
2022-09-28T12:39:56.946Z,60.46
2022-09-28T12:43:28.109Z,59.35
2022-09-28T12:47:09.766Z,60.41
2022-09-28T12:50:38.774Z,61.74
2022-09-28T12:54:02.181Z,63.97
2022-09-28T12:57:42.485Z,67.41
2022-09-28T13:01:11.925Z,66.92
2022-09-28T13:04:34.346Z,60.79
2022-09-28T13:08:13.652Z,61.22
2022-09-28T13:11:32.038Z,62.35
2022-09-28T13:15:11.940Z,59.22
2022-09-28T13:18:29.293Z,60.18
2022-09-28T13:22:08.891Z,60.67
2022-09-28T13:25:20.475Z,56.53
2022-09-28T13:28:27.000Z,60.85
2022-09-28T13:31:34.930Z,58.14
2022-09-28T13:34:39.807Z,56.58
2022-09-28T13:37:42.281Z,57.34
2022-09-28T13:41:06.262Z,58.23
2022-09-28T13:44:12.220Z,57.68
2022-09-28T13:47:52.813Z,56.60
2022-09-28T13:51:07.097Z,58.35
2022-09-28T13:54:32.986Z,58.11
2022-09-28T13:57:44.407Z,59.10
2022-09-28T14:01:08.177Z,58.85
2022-09-28T14:04:25.969Z,56.97
2022-09-28T14:07:34.072Z,57.84
2022-09-28T14:10:47.412Z,60.11
2022-09-28T14:14:08.647Z,59.80
2022-09-28T14:17:26.212Z,58.28
2022-09-28T14:20:31.535Z,59.51
2022-09-28T14:24:11.029Z,60.48
2022-09-28T14:27:18.678Z,62.40
2022-09-28T14:30:44.983Z,63.47
2022-09-28T14:33:56.821Z,64.22
2022-09-28T14:37:18.401Z,65.78
2022-09-28T14:40:48.688Z,60.78
2022-09-28T14:44:06.003Z,61.17
2022-09-28T14:47:45.758Z,57.99
2022-09-28T14:50:50.152Z,60.11
2022-09-28T14:54:11.041Z,58.72
2022-09-28T14:57:19.679Z,61.85
2022-09-28T15:00:24.656Z,61.52
2022-09-28T15:03:29.142Z,61.13
2022-09-28T15:06:51.657Z,61.65
2022-09-28T15:09:56.379Z,63.52
2022-09-28T15:13:04.202Z,63.13
2022-09-28T15:16:09.781Z,64.82
2022-09-28T15:19:27.053Z,66.04
2022-09-28T15:22:30.392Z,67.18
2022-09-28T15:25:32.937Z,68.99
2022-09-28T15:28:36.851Z,69.26
2022-09-28T15:31:39.064Z,69.75
2022-09-28T15:34:54.764Z,70.58
2022-09-28T15:37:56.997Z,71.17
2022-09-28T15:41:02.868Z,71.21
2022-09-28T15:44:07.318Z,70.80
2022-09-28T15:47:19.330Z,72.26
2022-09-28T15:50:28.363Z,72.78
2022-09-28T15:53:31.455Z,73.72
2022-09-28T15:56:55.134Z,73.01
2022-09-28T15:59:59.189Z,73.87
2022-09-28T16:03:05.528Z,73.92
2022-09-28T16:06:10.061Z,74.14
2022-09-28T16:09:31.801Z,74.45
2022-09-28T16:12:37.259Z,74.93
2022-09-28T16:15:39.518Z,75.35
2022-09-28T16:18:48.114Z,74.91
2022-09-28T16:21:52.988Z,75.04
2022-09-28T16:24:57.492Z,75.85
2022-09-28T16:28:00.972Z,76.01
2022-09-28T16:31:28.171Z,75.50
2022-09-28T16:34:30.900Z,76.32
2022-09-28T16:37:33.235Z,76.05
2022-09-28T16:40:35.535Z,76.20
2022-09-28T16:43:37.865Z,76.28
2022-09-28T16:46:40.133Z,76.34
2022-09-28T16:49:42.787Z,77.06
2022-09-28T16:53:03.649Z,77.15
2022-09-28T16:56:06.630Z,77.20
2022-09-28T16:59:15.830Z,77.25
2022-09-28T17:05:45.438Z,78.24
2022-09-28T17:08:47.823Z,78.92
2022-09-28T17:11:56.751Z,79.93
2022-09-28T17:15:00.059Z,80.58
2022-09-28T17:18:02.879Z,80.17
2022-09-28T17:21:07.377Z,80.07
2022-09-28T17:24:09.517Z,80.22
2022-09-28T17:27:16.482Z,80.40
2022-09-28T17:30:23.542Z,80.67
2022-09-28T17:33:28.255Z,80.66
2022-09-28T17:36:30.582Z,80.92
2022-09-28T17:39:32.970Z,81.76
2022-09-28T17:42:35.161Z,81.73
2022-09-28T17:45:41.832Z,80.89
2022-09-28T17:48:46.849Z,81.47
2022-09-28T17:51:50.457Z,81.63
2022-09-28T17:54:52.472Z,82.91
2022-09-28T17:57:55.861Z,83.27
2022-09-28T18:00:57.980Z,85.30
2022-09-28T18:04:04.214Z,85.83
2022-09-28T18:07:06.506Z,86.10
2022-09-28T18:10:14.367Z,86.97
2022-09-28T18:13:16.352Z,87.61
2022-09-28T18:16:19.660Z,87.61
2022-09-28T18:19:21.745Z,87.77
2022-09-28T18:22:23.978Z,86.89
2022-09-28T18:25:26.044Z,87.83
2022-09-28T18:28:29.943Z,87.90
2022-09-28T18:31:31.978Z,88.32
2022-09-28T18:34:37.909Z,87.70
2022-09-28T18:37:40.500Z,88.46
2022-09-28T18:40:43.074Z,87.85
2022-09-28T18:43:49.299Z,88.48
2022-09-28T18:46:51.697Z,89.29
2022-09-28T18:49:53.846Z,89.57
2022-09-28T18:53:11.301Z,90.22
2022-09-28T18:56:18.360Z,90.60
2022-09-28T18:59:20.651Z,91.48
2022-09-28T19:02:23.001Z,92.00
2022-09-28T19:05:28.753Z,93.80
2022-09-28T19:08:30.904Z,95.49
2022-09-28T19:11:33.333Z,95.97
2022-09-28T19:14:35.554Z,97.48
2022-09-28T19:17:38.000Z,96.79
2022-09-28T19:20:40.335Z,97.50
2022-09-28T19:23:49.042Z,98.25
2022-09-28T19:26:55.093Z,99.14
2022-09-28T19:29:57.505Z,99.56
2022-09-28T19:32:59.583Z,98.95
2022-09-28T19:36:12.779Z,98.71
2022-09-28T19:39:15.452Z,97.67
2022-09-28T19:42:17.804Z,97.12
2022-09-28T19:45:20.022Z,97.93
2022-09-28T19:48:26.862Z,97.29
2022-09-28T19:51:29.093Z,97.06
2022-09-28T19:54:36.286Z,96.23
2022-09-28T19:57:38.873Z,96.52
2022-09-28T20:00:41.250Z,96.70
2022-09-28T20:03:43.339Z,97.15
2022-09-28T20:06:45.700Z,96.85
2022-09-28T20:09:47.848Z,96.80
2022-09-28T20:12:51.574Z,96.34
2022-09-28T20:15:53.712Z,96.91
2022-09-28T20:19:00.658Z,96.49
2022-09-28T20:22:03.188Z,97.18
2022-09-28T20:25:06.682Z,97.52
2022-09-28T20:28:08.868Z,95.65
2022-09-28T20:31:15.670Z,95.60
2022-09-28T20:34:17.797Z,94.58
2022-09-28T20:37:20.215Z,93.95
2022-09-28T20:40:22.562Z,93.40
2022-09-28T20:43:24.870Z,93.20
2022-09-28T20:46:27.091Z,93.32
2022-09-28T20:49:29.520Z,92.83
2022-09-28T20:52:31.644Z,92.01
2022-09-28T20:55:33.965Z,92.61
2022-09-28T20:58:38.722Z,92.89
2022-09-28T21:01:41.308Z,92.38
2022-09-28T21:04:43.640Z,92.10
2022-09-28T21:07:45.865Z,92.50
2022-09-28T21:10:47.828Z,91.53
2022-09-28T21:13:58.223Z,92.00
2022-09-28T21:17:00.501Z,92.10
2022-09-28T21:20:02.897Z,93.75
2022-09-28T21:23:04.922Z,94.62
2022-09-28T21:26:09.456Z,94.68
2022-09-28T21:29:14.042Z,93.69
2022-09-28T21:32:16.244Z,93.07
2022-09-28T21:35:18.259Z,93.51
2022-09-28T21:38:20.593Z,93.41
2022-09-28T21:41:23.418Z,93.38
2022-09-28T21:44:26.104Z,93.64
2022-09-28T21:47:28.051Z,92.64
2022-09-28T21:50:30.990Z,92.84
2022-09-28T21:53:37.369Z,91.87
2022-09-28T21:56:39.999Z,90.94
2022-09-28T21:59:42.258Z,91.34
2022-09-28T22:02:45.425Z,92.11
2022-09-28T22:05:51.165Z,91.39
2022-09-28T22:08:53.999Z,90.83
2022-09-28T22:11:56.135Z,91.13
2022-09-28T22:14:58.334Z,90.60
2022-09-28T22:18:00.353Z,89.84
2022-09-28T22:21:23.072Z,89.22
2022-09-28T22:24:25.402Z,89.03
2022-09-28T22:27:31.705Z,88.22
2022-09-28T22:30:34.938Z,87.63
2022-09-28T22:33:37.145Z,87.54
2022-09-28T22:36:39.285Z,87.76
2022-09-28T22:39:41.591Z,87.81
2022-09-28T22:42:43.616Z,90.06
2022-09-28T22:45:46.208Z,91.45
2022-09-28T22:48:50.226Z,91.94
2022-09-28T22:51:52.601Z,92.68
2022-09-28T22:54:54.751Z,94.04
2022-09-28T22:57:56.972Z,93.39
2022-09-28T23:01:17.289Z,92.38
2022-09-28T23:04:19.648Z,92.40
2022-09-28T23:07:21.733Z,92.26
2022-09-28T23:10:24.409Z,92.73
2022-09-28T23:13:26.727Z,92.49
2022-09-28T23:16:30.227Z,92.73
2022-09-28T23:19:32.301Z,92.86
2022-09-28T23:22:34.637Z,92.11
2022-09-28T23:25:36.655Z,91.40
2022-09-28T23:28:38.911Z,91.37
2022-09-28T23:31:41.405Z,91.41
2022-09-28T23:34:43.824Z,90.78
2022-09-28T23:37:50.206Z,91.89
2022-09-28T23:40:52.426Z,91.05
2022-09-28T23:43:54.578Z,90.39
2022-09-28T23:46:57.843Z,90.48
2022-09-28T23:50:00.017Z,90.50
2022-09-28T23:53:02.520Z,89.84
2022-09-28T23:56:04.783Z,89.37
2022-09-28T23:59:06.978Z,88.29
